Meteorología y climatología de Navarra
Datos de la estación - Meteo Navarra

Estación de Etxarri-Aranatz GN

Altitud 505 m.


Datos desde el 02/08/2020 hasta el 03/08/2020 en horario solar
Los datos son PROVISIONALES

Anterior Página 1 de 1 Siguiente Descargar: Formato para Excel 2000 o superior   Formato csv   Formato para OpenOffice Calc
Fecha Temperatura Humedad relativa Radiación global Insolación Precipitación Vel. viento 10 m Vel. viento 10 m Dir. viento 10 m
ºC % W/m² s l/m² m/s km/h º
02/08/2020 0:00 17.5 93 0.0 0 0.0 1.1 4.0 280
02/08/2020 0:10 17.7 87 0.0 0 0.0 1.8 6.4 328
02/08/2020 0:20 17.9 82 0.0 0 0.0 2.9 10.5 332
02/08/2020 0:30 18.1 80 0.0 0 0.0 2.8 10.1 329
02/08/2020 0:40 18.0 80 0.0 0 0.0 2.4 8.8 327
02/08/2020 0:50 18.0 80 0.0 0 0.0 2.5 8.9 326
02/08/2020 1:00 17.9 83 0.0 0 0.0 1.0 3.6 275
02/08/2020 1:10 17.4 88 0.0 0 0.0 1.9 6.8 261
02/08/2020 1:20 16.9 90 0.0 0 0.0 2.1 7.7 256
02/08/2020 1:30 16.8 91 0.0 0 0.0 2.1 7.4 255
02/08/2020 1:40 16.7 92 0.0 0 0.0 1.6 5.6 260
02/08/2020 1:50 16.6 92 0.0 0 0.0 2.0 7.3 252
02/08/2020 2:00 16.5 93 0.0 0 0.0 1.6 5.8 257
02/08/2020 2:10 16.4 93 0.0 0 0.0 2.0 7.2 252
02/08/2020 2:20 16.5 93 0.0 0 0.0 1.8 6.5 255
02/08/2020 2:30 16.3 94 0.0 0 0.0 1.1 4.0 273
02/08/2020 2:40 16.5 93 0.0 0 0.0 0.8 3.0 269
02/08/2020 2:50 16.6 92 0.0 0 0.0 1.3 4.7 245
02/08/2020 3:00 16.5 91 0.0 0 0.0 0.8 2.7 247
02/08/2020 3:10 16.5 91 0.0 0 0.0 0.6 2.1 235
02/08/2020 3:20 16.4 91 0.0 0 0.0 1.0 3.5 246
02/08/2020 3:30 16.3 91 0.0 0 0.0 1.1 3.9 240
02/08/2020 3:40 16.4 91 0.0 0 0.0 1.1 3.9 246
02/08/2020 3:50 16.5 91 0.0 0 0.0 1.3 4.8 241
02/08/2020 4:00 16.5 91 0.0 0 0.0 1.3 4.6 246
02/08/2020 4:10 16.4 92 0.0 0 0.0 1.6 5.7 251
02/08/2020 4:20 16.2 93 0.0 0 0.0 1.6 5.7 251
02/08/2020 4:30 16.4 93 0.0 0 0.0 1.3 4.5 258
02/08/2020 4:40 16.4 93 0.0 0 0.0 0.5 1.9 273
02/08/2020 4:50 16.4 93 0.0 0 0.0 0.6 2.1 298
02/08/2020 5:00 16.4 93 0.0 0 0.0 0.6 2.3 303
02/08/2020 5:10 16.4 94 0.0 0 0.0 0.6 2.0 286
02/08/2020 5:20 16.5 94 0.0 0 0.0 1.0 3.6 292
02/08/2020 5:30 16.4 94 5.5 0 0.0 0.7 2.6 291
02/08/2020 5:40 16.3 94 29.2 0 0.0 1.3 4.5 272
02/08/2020 5:50 16.2 93 31.9 0 0.0 1.5 5.5 258
02/08/2020 6:00 16.2 93 31.3 0 0.0 1.1 4.0 261
02/08/2020 6:10 16.2 92 46.6 0 0.0 1.0 3.5 272
02/08/2020 6:20 16.3 91 41.2 0 0.0 1.2 4.1 289
02/08/2020 6:30 16.4 91 44.0 0 0.0 1.4 5.2 275
02/08/2020 6:40 16.4 92 48.5 0 0.0 1.2 4.2 268
02/08/2020 6:50 16.5 92 84.4 0 0.0 1.7 6.2 251
02/08/2020 7:00 16.5 92 106.5 0 0.0 2.0 7.0 252
02/08/2020 7:10 16.7 91 108.7 0 0.0 1.6 5.7 264
02/08/2020 7:20 16.8 91 125.7 0 0.0 1.8 6.5 265
02/08/2020 7:30 17.1 89 143.3 0 0.0 1.7 6.3 255
02/08/2020 7:40 17.3 87 83.1 0 0.0 1.0 3.6 281
02/08/2020 7:50 17.4 84 103.6 0 0.0 0.8 2.8 298
02/08/2020 8:00 17.4 83 88.8 0 0.0 1.6 5.8 317
02/08/2020 8:10 17.2 84 81.5 0 0.0 0.8 2.8 289
02/08/2020 8:20 17.6 82 158.1 0 0.0 1.0 3.5 339
02/08/2020 8:30 18.0 82 238.2 0 0.0 0.5 1.7 73
02/08/2020 8:40 18.4 79 221.5 0 0.0 0.3 1.2 141
02/08/2020 8:50 18.8 76 290.3 0 0.0 0.5 1.7 49
02/08/2020 9:00 19.0 70 207.8 0 0.0 1.5 5.3 328
02/08/2020 9:10 18.2 72 146.2 0 0.0 2.1 7.6 326
02/08/2020 9:20 17.9 76 175.7 0 0.0 1.4 5.0 309
02/08/2020 9:30 17.9 74 189.2 0 0.0 2.0 7.3 307
02/08/2020 9:40 17.9 76 133.7 0 0.0 1.8 6.4 326
02/08/2020 9:50 17.4 78 174.6 0 0.0 1.8 6.5 306
02/08/2020 10:00 17.8 78 242.1 0 0.0 1.4 5.0 268
02/08/2020 10:10 18.0 79 370.1 0 0.0 2.8 9.9 254
02/08/2020 10:20 18.4 77 511.9 518 0.0 2.5 9.1 264
02/08/2020 10:30 19.1 69 540.4 600 0.0 1.8 6.4 305
02/08/2020 10:40 19.2 68 475.0 290 0.0 2.6 9.3 328
02/08/2020 10:50 19.2 67 476.4 344 0.0 3.5 12.7 327
02/08/2020 11:00 19.1 68 450.6 240 0.0 3.4 12.2 332
02/08/2020 11:10 19.4 67 451.0 0 0.0 2.4 8.7 331
02/08/2020 11:20 19.7 67 477.4 274 0.0 2.6 9.4 313
02/08/2020 11:30 19.5 66 549.0 600 0.0 2.7 9.5 328
02/08/2020 11:40 19.7 65 740.6 600 0.0 3.4 12.1 326
02/08/2020 11:50 19.9 65 607.1 342 0.0 3.4 12.3 324
02/08/2020 12:00 19.8 66 443.5 136 0.0 2.1 7.6 348
02/08/2020 12:10 20.3 65 368.5 0 0.0 1.7 6.1 356
02/08/2020 12:20 19.2 71 292.6 0 0.0 3.7 13.4 323
02/08/2020 12:30 18.6 74 305.1 0 0.0 3.4 12.1 328
02/08/2020 12:40 18.9 73 415.1 0 0.0 1.9 6.8 314
02/08/2020 12:50 19.3 70 454.9 186 0.0 1.5 5.4 299
02/08/2020 13:00 19.8 66 364.7 0 0.0 2.1 7.7 327
02/08/2020 13:10 20.0 65 343.2 0 0.0 2.3 8.2 339
02/08/2020 13:20 19.7 65 399.2 0 0.0 3.4 12.2 327
02/08/2020 13:30 19.5 66 325.9 0 0.0 3.6 12.9 326
02/08/2020 13:40 19.1 69 223.6 0 0.0 2.3 8.4 328
02/08/2020 13:50 18.9 72 130.2 0 0.0 2.1 7.5 312
02/08/2020 14:00 18.6 75 130.9 0 0.0 1.4 5.1 303
02/08/2020 14:10 18.5 76 177.6 0 0.0 1.3 4.6 300
02/08/2020 14:20 18.5 77 226.6 0 0.0 1.2 4.4 301
02/08/2020 14:30 18.5 76 224.0 0 0.0 2.6 9.2 321
02/08/2020 14:40 18.2 76 263.4 0 0.0 2.9 10.4 328
02/08/2020 14:50 18.8 71 401.2 162 0.0 2.0 7.3 323
02/08/2020 15:00 19.1 69 435.5 276 0.0 3.1 11.0 327
02/08/2020 15:10 19.3 65 327.9 122 0.0 2.9 10.4 336
02/08/2020 15:20 19.0 67 168.8 0 0.0 2.7 9.6 335
02/08/2020 15:30 18.8 68 215.2 0 0.0 2.5 9.0 332
02/08/2020 15:40 18.8 69 217.5 0 0.0 1.4 4.9 314
02/08/2020 15:50 19.0 69 290.2 0 0.0 1.5 5.4 302
02/08/2020 16:00 19.2 69 302.7 158 0.0 1.6 5.7 322
02/08/2020 16:10 19.1 70 234.2 0 0.0 1.8 6.4 299
02/08/2020 16:20 19.0 69 257.7 0 0.0 1.5 5.4 312
02/08/2020 16:30 19.1 68 312.1 198 0.0 2.1 7.7 309
02/08/2020 16:40 19.6 67 264.8 328 0.0 2.0 7.1 317
02/08/2020 16:50 19.2 69 145.4 0 0.0 1.9 6.7 308
02/08/2020 17:00 18.8 71 101.0 0 0.0 2.8 10.0 324
02/08/2020 17:10 18.7 72 72.0 0 0.0 2.1 7.7 330
02/08/2020 17:20 18.6 71 57.3 0 0.0 2.2 8.1 340
02/08/2020 17:30 18.4 69 46.6 0 0.0 3.0 10.9 339
02/08/2020 17:40 18.1 69 69.6 0 0.0 1.6 5.6 339
02/08/2020 17:50 18.2 68 66.0 0 0.0 1.5 5.5 358
02/08/2020 18:00 18.1 68 63.7 0 0.0 1.4 5.0 333
02/08/2020 18:10 18.1 68 60.0 0 0.0 1.4 4.9 314
02/08/2020 18:20 18.4 68 73.9 0 0.0 1.1 3.9 278
02/08/2020 18:30 18.1 70 53.1 0 0.0 1.3 4.6 304
02/08/2020 18:40 17.8 72 25.0 0 0.0 1.3 4.6 297
02/08/2020 18:50 17.7 74 1.6 0 0.0 1.3 4.8 299
02/08/2020 19:00 17.4 75 0.0 0 0.0 1.9 6.7 311
02/08/2020 19:10 17.3 76 0.0 0 0.0 2.0 7.0 327
02/08/2020 19:20 17.3 77 0.0 0 0.0 1.3 4.7 308
02/08/2020 19:30 17.2 77 0.0 0 0.0 0.7 2.4 295
02/08/2020 19:40 17.2 79 0.0 0 0.0 0.7 2.5 290
02/08/2020 19:50 17.2 79 0.0 0 0.0 1.1 4.1 297
02/08/2020 20:00 17.1 76 0.0 0 0.0 1.9 6.8 319
02/08/2020 20:10 17.3 75 0.0 0 0.0 2.2 7.9 321
02/08/2020 20:20 17.2 73 0.0 0 0.0 3.1 11.3 320
02/08/2020 20:30 17.1 75 0.0 0 0.0 1.9 7.0 316
02/08/2020 20:40 16.8 79 0.0 0 0.0 1.4 5.2 304
02/08/2020 20:50 16.6 78 0.0 0 0.0 1.5 5.5 310
02/08/2020 21:00 16.6 78 0.0 0 0.0 1.1 4.0 296
02/08/2020 21:10 16.7 79 0.0 0 0.0 1.2 4.2 308
02/08/2020 21:20 16.6 79 0.0 0 0.0 1.0 3.5 304
02/08/2020 21:30 16.3 80 0.0 0 0.0 0.8 2.9 302
02/08/2020 21:40 16.2 81 0.0 0 0.0 0.7 2.4 292
02/08/2020 21:50 16.2 79 0.0 0 0.0 0.6 2.2 298
02/08/2020 22:00 16.1 80 0.0 0 0.0 0.6 2.1 288
02/08/2020 22:10 15.9 82 0.0 0 0.0 0.8 3.0 275
02/08/2020 22:20 15.8 82 0.0 0 0.0 0.8 2.8 283
02/08/2020 22:30 15.8 82 0.0 0 0.0 0.7 2.4 298
02/08/2020 22:40 16.1 80 0.0 0 0.0 0.7 2.4 283
02/08/2020 22:50 15.8 82 0.0 0 0.0 0.9 3.3 284
02/08/2020 23:00 15.9 82 0.0 0 0.0 0.6 2.2 294
02/08/2020 23:10 15.9 82 0.0 0 0.0 0.8 2.7 283
02/08/2020 23:20 16.1 83 0.0 0 0.0 0.9 3.1 291
02/08/2020 23:30 16.0 84 0.0 0 0.0 0.8 2.7 283
02/08/2020 23:40 16.0 83 0.0 0 0.0 1.5 5.5 273
02/08/2020 23:50 15.9 84 0.0 0 0.0 1.0 3.7 283
Anterior Página 1 de 1 Siguiente

NOTA: Tipo de datos según el color:
   - Valores diarios o 10 minutos correctos
   - Valores diarios calculados a partir de un número de datos 10 minutos menor que 144 y mayor que 120, o de un número de datos semihorarios menor que 48 y mayor que 40 (caso de las estaciones de INTIA y del Ministerio)
   - Valores diez minutos estimados


Contacto        Enlaces        Aviso legal